Time;durP1;ratioP1;P1;durP2;ratioP2;P2;SDS_P1;SDS_P2;PMS_P1;PMS_P2;Temp;Humidity;BMP_temperature;BMP_pressure;BME280_temperature;BME280_humidity;BME280_pressure;Samples;Min_cycle;Max_cycle;Signal;HPM_P1;HPM_P2
2022/06/06 00:01:13;;;;;;;1.70;1.60;;;25.50;67.70;;;;;;5113401;28;20439;-82
2022/06/06 00:03:40;;;;;;;2.00;1.90;;;25.50;67.70;;;;;;5113330;28;20525;-82
2022/06/06 00:06:11;;;;;;;2.80;2.60;;;25.50;67.70;;;;;;5113263;28;20447;-82
2022/06/06 00:08:38;;;;;;;2.03;1.93;;;25.50;67.70;;;;;;5113280;28;20771;-82
2022/06/06 00:11:05;;;;;;;2.27;2.17;;;25.50;67.70;;;;;;5113483;28;20925;-82
2022/06/06 00:13:34;;;;;;;2.20;2.10;;;25.50;67.70;;;;;;5112988;28;20565;-82
2022/06/06 00:16:01;;;;;;;1.83;1.73;;;25.50;67.60;;;;;;5113076;28;20569;-81
2022/06/06 00:18:29;;;;;;;1.70;1.60;;;25.50;67.70;;;;;;5112693;28;20442;-81
2022/06/06 00:20:57;;;;;;;2.10;1.90;;;25.50;67.70;;;;;;5116444;28;20451;-82
2022/06/06 00:23:24;;;;;;;1.60;1.50;;;25.50;67.70;;;;;;5116590;28;20443;-82
2022/06/06 00:25:51;;;;;;;2.23;2.03;;;25.50;67.60;;;;;;5116587;28;20513;-82
2022/06/06 00:28:18;;;;;;;2.37;2.27;;;25.50;67.60;;;;;;5116240;28;20534;-82
2022/06/06 00:30:46;;;;;;;2.57;2.37;;;25.50;68.60;;;;;;5116651;28;20534;-82
2022/06/06 00:35:58;;;;;;;1.90;1.80;;;25.50;67.80;;;;;;5116890;28;20477;-82
2022/06/06 00:38:24;;;;;;;2.00;1.90;;;25.50;67.70;;;;;;5116579;28;20435;-81
2022/06/06 00:40:52;;;;;;;2.60;2.40;;;25.50;67.70;;;;;;5116520;28;20474;-82
2022/06/06 00:43:20;;;;;;;1.90;1.80;;;25.50;67.70;;;;;;5116824;28;20439;-82
2022/06/06 00:45:51;;;;;;;2.30;2.10;;;25.50;67.70;;;;;;5116446;28;20910;-82
2022/06/06 00:48:24;;;;;;;2.30;2.10;;;25.50;67.60;;;;;;5116388;28;20459;-82
2022/06/06 00:50:56;;;;;;;2.10;2.00;;;25.50;67.70;;;;;;5132641;27;20525;-82
2022/06/06 00:53:28;;;;;;;2.10;2.00;;;25.50;67.60;;;;;;5137101;27;20434;-82
2022/06/06 00:55:59;;;;;;;2.60;2.40;;;25.50;67.70;;;;;;5136750;27;20517;-82
2022/06/06 00:58:29;;;;;;;2.37;2.27;;;25.50;67.60;;;;;;5136700;27;20521;-82
2022/06/06 01:00:57;;;;;;;2.47;2.37;;;25.50;67.70;;;;;;5136734;27;20438;-82
2022/06/06 01:03:27;;;;;;;2.33;2.23;;;25.50;67.80;;;;;;5136470;27;20522;-82
2022/06/06 01:05:56;;;;;;;2.23;2.13;;;25.50;67.90;;;;;;5136723;27;20576;-82
2022/06/06 01:08:24;;;;;;;2.40;2.30;;;25.50;67.90;;;;;;5129572;27;20453;-82
2022/06/06 01:10:51;;;;;;;2.20;2.10;;;25.50;67.90;;;;;;5115380;28;20463;-82
2022/06/06 01:13:22;;;;;;;2.60;2.40;;;25.50;67.90;;;;;;5115342;27;20550;-82
2022/06/06 01:16:11;;;;;;;2.20;2.00;;;25.50;67.80;;;;;;5115416;28;21008;-82
2022/06/06 01:18:53;;;;;;;2.50;2.40;;;25.50;68.70;;;;;;5126732;27;20887;-82
2022/06/06 01:21:58;;;;;;;2.60;2.40;;;25.50;67.80;;;;;;5136060;27;20442;-82
2022/06/06 01:24:43;;;;;;;2.90;2.70;;;25.50;67.70;;;;;;5100043;27;20521;-82
2022/06/06 01:27:30;;;;;;;2.70;2.50;;;25.50;67.80;;;;;;5136089;27;20465;-82
2022/06/06 01:30:03;;;;;;;2.43;2.33;;;25.50;67.90;;;;;;5135969;27;20434;-82
2022/06/06 01:32:37;;;;;;;2.87;2.67;;;25.40;67.90;;;;;;5135418;27;20828;-83
2022/06/06 01:35:05;;;;;;;2.20;2.10;;;25.40;67.80;;;;;;5136058;27;20466;-82
2022/06/06 01:37:36;;;;;;;2.67;2.57;;;25.40;67.70;;;;;;5122854;27;20878;-82
2022/06/06 01:40:07;;;;;;;2.63;2.50;;;25.40;67.80;;;;;;5135773;27;20538;-82
2022/06/06 01:42:39;;;;;;;2.60;2.40;;;25.40;67.80;;;;;;5135761;27;20461;-82
2022/06/06 01:45:13;;;;;;;2.63;2.43;;;25.40;67.80;;;;;;5135511;27;20949;-82
2022/06/06 01:47:43;;;;;;;2.43;2.23;;;25.40;67.80;;;;;;5133909;27;20465;-81
2022/06/06 01:50:12;;;;;;;2.40;2.30;;;25.40;67.80;;;;;;5136081;27;20475;-82
2022/06/06 01:52:54;;;;;;;2.70;2.50;;;25.40;67.80;;;;;;5135642;27;20465;-82
2022/06/06 01:55:21;;;;;;;2.60;2.50;;;25.40;67.70;;;;;;5135402;27;20473;-82
2022/06/06 01:57:49;;;;;;;2.53;2.33;;;25.40;67.80;;;;;;5134508;27;20541;-82
2022/06/06 02:00:18;;;;;;;2.37;2.27;;;25.40;67.80;;;;;;5114867;28;20439;-82
2022/06/06 02:02:45;;;;;;;2.47;2.37;;;25.40;67.90;;;;;;5115551;27;20449;-82
2022/06/06 02:05:14;;;;;;;2.87;2.67;;;25.40;67.80;;;;;;5115063;28;20546;-82
2022/06/06 02:07:43;;;;;;;2.90;2.70;;;25.40;67.80;;;;;;5114644;28;20482;-82
2022/06/06 02:10:12;;;;;;;2.60;2.50;;;25.40;67.70;;;;;;5114643;28;20445;-82
2022/06/06 02:12:40;;;;;;;2.53;2.43;;;25.40;67.70;;;;;;5114661;28;20838;-82
2022/06/06 02:15:09;;;;;;;2.10;2.00;;;25.40;67.70;;;;;;5114587;28;20521;-83
2022/06/06 02:17:38;;;;;;;2.90;2.70;;;25.40;67.70;;;;;;5117558;27;20533;-81
2022/06/06 02:20:06;;;;;;;3.20;2.90;;;25.40;67.80;;;;;;5134879;27;20837;-83
2022/06/06 02:22:33;;;;;;;2.70;2.60;;;25.40;67.80;;;;;;5134946;27;20655;-82
2022/06/06 02:25:00;;;;;;;3.07;2.87;;;25.40;67.70;;;;;;5135145;27;20474;-82
2022/06/06 02:27:27;;;;;;;3.10;2.80;;;25.40;67.80;;;;;;5134831;27;20461;-82
2022/06/06 02:29:54;;;;;;;2.93;2.73;;;25.40;67.90;;;;;;5115061;27;20439;-82
2022/06/06 02:32:21;;;;;;;2.83;2.70;;;25.40;67.80;;;;;;5114337;28;20483;-82
2022/06/06 02:34:49;;;;;;;3.00;2.80;;;25.40;67.80;;;;;;5114594;28;20467;-82
2022/06/06 02:37:16;;;;;;;2.73;2.60;;;25.40;68.40;;;;;;5114360;27;20558;-82
2022/06/06 02:39:43;;;;;;;2.80;2.60;;;25.40;67.80;;;;;;5114421;28;20625;-82
2022/06/06 02:42:11;;;;;;;2.47;2.37;;;25.40;67.80;;;;;;5113885;28;20439;-82
2022/06/06 02:44:37;;;;;;;3.33;3.13;;;25.40;67.80;;;;;;5114098;28;20445;-82
2022/06/06 02:47:05;;;;;;;2.70;2.50;;;25.40;67.80;;;;;;5123186;27;20521;-82
2022/06/06 02:49:33;;;;;;;2.50;2.40;;;25.40;67.90;;;;;;5134705;27;20927;-82
2022/06/06 02:52:02;;;;;;;2.77;2.57;;;25.40;67.80;;;;;;5134819;27;20920;-82
2022/06/06 02:54:29;;;;;;;3.17;2.97;;;25.40;68.70;;;;;;5115297;27;20453;-83
2022/06/06 02:56:56;;;;;;;3.13;3.03;;;25.40;67.80;;;;;;5114034;28;20557;-82
2022/06/06 02:59:25;;;;;;;3.13;2.93;;;25.40;67.90;;;;;;5132492;27;20445;-81
2022/06/06 03:01:52;;;;;;;3.00;2.80;;;25.40;67.80;;;;;;5134732;27;20444;-82
2022/06/06 03:04:19;;;;;;;2.70;2.60;;;25.40;67.80;;;;;;5132185;27;20446;-82
2022/06/06 03:06:57;;;;;;;2.97;2.83;;;25.40;67.80;;;;;;5134627;27;20441;-82
2022/06/06 03:09:36;;;;;;;2.57;2.47;;;25.40;68.60;;;;;;5134491;27;20438;-82
2022/06/06 03:12:33;;;;;;;2.90;2.80;;;25.40;67.70;;;;;;5134099;27;20442;-83
2022/06/06 03:15:32;;;;;;;3.00;2.80;;;25.40;67.80;;;;;;5103394;28;20530;-82
2022/06/06 03:21:14;;;;;;;2.97;2.77;;;25.40;67.90;;;;;;5114008;28;20418;-82
2022/06/06 03:24:13;;;;;;;2.83;2.63;;;25.30;67.90;;;;;;5113770;28;20526;-82
2022/06/06 03:27:11;;;;;;;2.73;2.53;;;25.40;67.90;;;;;;5113721;28;20524;-82
2022/06/06 03:29:55;;;;;;;2.93;2.73;;;25.30;67.80;;;;;;5113592;28;20496;-83
2022/06/06 03:32:35;;;;;;;2.93;2.73;;;25.30;67.90;;;;;;5113896;28;20849;-82
2022/06/06 03:35:14;;;;;;;2.40;2.30;;;25.30;67.90;;;;;;5113629;28;20860;-83
2022/06/06 03:37:49;;;;;;;3.03;2.83;;;25.40;67.90;;;;;;5113684;28;20488;-83
2022/06/06 03:40:22;;;;;;;2.53;2.43;;;25.30;67.80;;;;;;5113455;28;20529;-82
2022/06/06 03:43:01;;;;;;;2.63;2.53;;;25.30;67.90;;;;;;5113321;28;20441;-81
2022/06/06 03:45:38;;;;;;;2.90;2.70;;;25.30;68.70;;;;;;5113040;28;20439;-82
2022/06/06 03:48:18;;;;;;;2.80;2.70;;;25.30;67.80;;;;;;5113495;28;20443;-82
2022/06/06 03:50:50;;;;;;;2.63;2.53;;;25.30;67.90;;;;;;5113603;28;20926;-82
2022/06/06 03:53:23;;;;;;;2.73;2.60;;;25.30;67.90;;;;;;5113610;28;20453;-82
2022/06/06 03:56:03;;;;;;;2.50;2.40;;;25.30;67.90;;;;;;5116976;27;20453;-82
2022/06/06 03:58:33;;;;;;;2.93;2.73;;;25.30;67.80;;;;;;5117437;28;20446;-82
2022/06/06 04:01:05;;;;;;;2.70;2.60;;;25.30;67.90;;;;;;5098869;28;20426;-82
2022/06/06 04:03:34;;;;;;;2.43;2.23;;;25.30;67.90;;;;;;5123458;27;20511;-82
2022/06/06 04:06:02;;;;;;;3.10;2.90;;;25.30;67.90;;;;;;5137799;27;20442;-82
2022/06/06 04:08:32;;;;;;;2.53;2.43;;;25.30;67.90;;;;;;5137971;27;20525;-82
2022/06/06 04:11:08;;;;;;;2.60;2.50;;;25.30;67.90;;;;;;5137688;27;20437;-82
2022/06/06 04:13:47;;;;;;;2.77;2.57;;;25.30;67.90;;;;;;5137377;27;20553;-82
2022/06/06 04:16:24;;;;;;;2.47;2.37;;;25.30;67.90;;;;;;5137640;27;20564;-82
2022/06/06 04:19:03;;;;;;;2.77;2.57;;;25.30;68.00;;;;;;5137810;27;20449;-82
2022/06/06 04:21:39;;;;;;;2.83;2.73;;;25.30;67.90;;;;;;5137470;27;20784;-82
2022/06/06 04:24:24;;;;;;;3.13;2.93;;;25.30;67.90;;;;;;5126646;27;20533;-82
2022/06/06 04:26:57;;;;;;;2.30;2.20;;;25.30;67.90;;;;;;5116928;28;20999;-82
2022/06/06 04:29:34;;;;;;;2.40;2.30;;;25.30;67.90;;;;;;5116825;28;20509;-82
2022/06/06 04:32:10;;;;;;;2.87;2.70;;;25.30;67.90;;;;;;5131315;27;20434;-82
2022/06/06 04:34:47;;;;;;;2.93;2.83;;;25.30;67.90;;;;;;5137356;27;20444;-82
2022/06/06 04:37:20;;;;;;;3.07;2.87;;;25.30;67.90;;;;;;5118700;27;20504;-82
2022/06/06 04:39:57;;;;;;;3.10;2.90;;;25.30;67.90;;;;;;5116645;28;20435;-82
2022/06/06 04:42:31;;;;;;;2.70;2.60;;;25.30;67.80;;;;;;5117890;27;20445;-82
2022/06/06 04:45:07;;;;;;;2.40;2.30;;;25.30;67.80;;;;;;5137047;27;20436;-82
2022/06/06 04:47:38;;;;;;;2.63;2.50;;;25.30;67.90;;;;;;5137207;27;20430;-82
2022/06/06 04:50:06;;;;;;;2.27;2.17;;;25.30;67.90;;;;;;5137103;27;20446;-82
2022/06/06 04:52:35;;;;;;;2.63;2.53;;;25.30;67.90;;;;;;5135486;27;20448;-82
2022/06/06 04:55:06;;;;;;;2.90;2.70;;;25.30;67.90;;;;;;5136987;27;20921;-82
2022/06/06 04:57:34;;;;;;;2.80;2.60;;;25.30;67.80;;;;;;5136533;27;20492;-82
2022/06/06 05:00:04;;;;;;;2.60;2.50;;;25.30;67.90;;;;;;5136743;27;20520;-82
2022/06/06 05:02:32;;;;;;;2.53;2.43;;;25.30;67.90;;;;;;5136274;27;20498;-82
2022/06/06 05:04:59;;;;;;;2.40;2.30;;;25.30;67.90;;;;;;5136571;27;20437;-82
2022/06/06 05:07:55;;;;;;;3.00;2.80;;;25.30;67.90;;;;;;5136467;27;20964;-82
2022/06/06 05:10:31;;;;;;;2.83;2.63;;;25.30;68.60;;;;;;5134036;27;20434;-81
2022/06/06 05:13:28;;;;;;;2.40;2.30;;;25.30;67.90;;;;;;5115061;28;21052;-81
2022/06/06 05:16:13;;;;;;;2.93;2.73;;;25.30;67.80;;;;;;5111455;28;20473;-82
2022/06/06 05:19:07;;;;;;;2.93;2.73;;;25.30;67.90;;;;;;5116184;28;20617;-82
2022/06/06 05:21:51;;;;;;;2.63;2.53;;;25.30;67.80;;;;;;5115537;28;20522;-82
2022/06/06 05:24:50;;;;;;;2.50;2.40;;;25.30;68.00;;;;;;5115405;28;20982;-82
2022/06/06 05:27:34;;;;;;;2.30;2.20;;;25.20;67.70;;;;;;5107646;28;20999;-82
2022/06/06 05:30:11;;;;;;;2.80;2.60;;;25.20;67.80;;;;;;5115782;28;20526;-82
2022/06/06 05:33:11;;;;;;;2.40;2.20;;;25.20;67.80;;;;;;5115438;28;20431;-82
2022/06/06 05:36:25;;;;;;;2.10;2.00;;;25.30;67.70;;;;;;5070258;28;20450;-81
2022/06/06 05:39:15;;;;;;;2.57;2.47;;;25.20;67.70;;;;;;5067413;28;20859;-83
2022/06/06 05:41:55;;;;;;;5.97;3.30;;;25.20;67.90;;;;;;5117255;27;20435;-83
2022/06/06 05:44:30;;;;;;;2.60;2.50;;;25.20;68.80;;;;;;5124955;27;20469;-83
2022/06/06 05:47:04;;;;;;;2.70;2.50;;;25.20;68.60;;;;;;5115137;28;20442;-80
2022/06/06 05:49:48;;;;;;;5.90;2.90;;;25.20;68.80;;;;;;5115045;28;20439;-88
2022/06/06 05:52:32;;;;;;;3.13;2.83;;;25.30;68.60;;;;;;5120162;27;20927;-86
2022/06/06 05:55:16;;;;;;;2.23;2.13;;;25.30;69.00;;;;;;5135505;27;20445;-81
2022/06/06 05:58:01;;;;;;;3.93;3.63;;;25.30;68.00;;;;;;5135700;27;20534;-82
2022/06/06 06:00:42;;;;;;;3.33;3.13;;;25.30;68.80;;;;;;5135572;27;20440;-82
2022/06/06 06:03:32;;;;;;;2.70;2.50;;;25.30;68.70;;;;;;5135890;27;20762;-82
2022/06/06 06:06:14;;;;;;;2.93;2.37;;;25.30;68.50;;;;;;5118154;27;20442;-81
2022/06/06 06:09:07;;;;;;;2.80;2.60;;;25.30;68.30;;;;;;5135659;27;20449;-80
2022/06/06 06:11:48;;;;;;;2.53;2.33;;;25.30;68.10;;;;;;5135246;27;20438;-82
2022/06/06 06:14:27;;;;;;;2.90;2.70;;;25.40;68.10;;;;;;5134994;27;20560;-81
2022/06/06 06:16:59;;;;;;;4.10;3.70;;;25.40;68.00;;;;;;5134634;27;20506;-81
2022/06/06 06:19:35;;;;;;;2.87;2.67;;;25.40;68.10;;;;;;5135338;27;20442;-81
2022/06/06 06:22:05;;;;;;;3.33;2.97;;;25.40;68.00;;;;;;5135134;27;20441;-85
2022/06/06 06:24:34;;;;;;;3.13;2.93;;;25.40;67.90;;;;;;5134842;27;21011;-85
2022/06/06 06:27:03;;;;;;;2.87;2.67;;;25.40;68.00;;;;;;5135207;27;20655;-80
2022/06/06 06:29:30;;;;;;;4.10;2.77;;;25.40;67.90;;;;;;5135073;27;20466;-80
2022/06/06 06:32:38;;;;;;;3.20;2.90;;;25.40;67.80;;;;;;5135030;27;20525;-81
2022/06/06 06:35:14;;;;;;;2.80;2.57;;;25.50;67.80;;;;;;5121298;27;20480;-80
2022/06/06 06:38:13;;;;;;;3.17;2.87;;;25.50;68.80;;;;;;5129951;27;20569;-81
2022/06/06 06:40:51;;;;;;;3.10;2.90;;;25.60;67.90;;;;;;5115974;27;20803;-81
2022/06/06 06:43:28;;;;;;;3.20;2.67;;;25.50;67.90;;;;;;5133063;27;20847;-90
2022/06/06 06:46:01;;;;;;;3.03;2.70;;;25.40;67.90;;;;;;5134637;27;20442;-90
2022/06/06 06:48:33;;;;;;;2.97;2.77;;;25.50;68.20;;;;;;5134861;27;20446;-85
2022/06/06 06:51:05;;;;;;;2.93;2.40;;;25.50;68.10;;;;;;5134343;27;20445;-82
2022/06/06 06:53:50;;;;;;;3.13;2.10;;;25.50;68.70;;;;;;5134711;27;20426;-81
2022/06/06 06:56:29;;;;;;;3.17;2.90;;;25.50;68.80;;;;;;5134603;27;20548;-81
2022/06/06 06:59:02;;;;;;;3.53;2.70;;;25.50;68.80;;;;;;5134313;27;20564;-88
2022/06/06 07:01:36;;;;;;;3.50;3.20;;;25.50;68.50;;;;;;5134894;27;20532;-84
2022/06/06 07:10:12;;;;;;;3.60;2.50;;;25.50;68.60;;;;;;5111052;28;20460;-80
2022/06/06 07:12:59;;;;;;;2.30;2.10;;;25.50;68.20;;;;;;5111910;28;20553;-80
2022/06/06 07:15:37;;;;;;;2.50;2.30;;;25.50;67.90;;;;;;5112121;28;20570;-80
2022/06/06 07:18:07;;;;;;;2.80;2.60;;;25.50;67.90;;;;;;5111831;28;20590;-80
2022/06/06 07:20:36;;;;;;;2.87;2.67;;;25.50;68.00;;;;;;5112199;28;20525;-80
2022/06/06 07:23:06;;;;;;;3.27;3.07;;;25.50;67.80;;;;;;5112104;28;20446;-80
2022/06/06 07:25:38;;;;;;;2.87;2.67;;;25.60;67.60;;;;;;5113702;28;20778;-80
2022/06/06 07:28:06;;;;;;;3.60;2.80;;;25.60;67.60;;;;;;5113539;28;20450;-80
2022/06/06 07:30:38;;;;;;;3.33;2.20;;;25.60;67.50;;;;;;5116714;28;20474;-79
2022/06/06 07:33:18;;;;;;;2.90;2.70;;;25.60;67.40;;;;;;5118120;28;20533;-79
2022/06/06 07:35:52;;;;;;;2.90;2.70;;;25.60;67.30;;;;;;5117829;28;20435;-80
2022/06/06 07:38:32;;;;;;;2.70;2.50;;;25.60;67.30;;;;;;5117798;28;21018;-80
2022/06/06 07:41:15;;;;;;;2.43;2.23;;;25.60;67.30;;;;;;5117859;28;20427;-80
2022/06/06 07:43:55;;;;;;;2.83;2.63;;;25.70;67.20;;;;;;5117702;28;20525;-80
2022/06/06 07:46:38;;;;;;;5.30;2.17;;;25.70;67.30;;;;;;5117703;28;20518;-80
2022/06/06 07:49:09;;;;;;;3.70;2.20;;;25.70;67.30;;;;;;5117791;28;20435;-79
2022/06/06 07:51:44;;;;;;;2.57;2.30;;;25.70;67.30;;;;;;5117409;28;20518;-80
2022/06/06 07:54:23;;;;;;;2.40;2.20;;;25.70;67.20;;;;;;5117588;28;20426;-80
2022/06/06 07:56:58;;;;;;;2.30;2.20;;;25.70;67.20;;;;;;5117435;28;20522;-81
2022/06/06 07:59:36;;;;;;;2.70;2.40;;;25.70;67.20;;;;;;5117055;28;20525;-79
2022/06/06 08:02:17;;;;;;;2.63;2.30;;;25.70;67.30;;;;;;5117383;28;20522;-80
2022/06/06 08:04:50;;;;;;;4.03;2.40;;;25.70;67.30;;;;;;5100815;28;20510;-80
2022/06/06 08:07:25;;;;;;;2.43;2.23;;;25.70;67.30;;;;;;5117313;28;20521;-84
2022/06/06 08:10:16;;;;;;;2.30;2.13;;;25.80;67.40;;;;;;5116958;28;20442;-79
2022/06/06 08:13:01;;;;;;;2.20;2.10;;;25.80;68.20;;;;;;5116892;28;20566;-82
2022/06/06 08:15:37;;;;;;;2.20;2.10;;;25.80;67.30;;;;;;5117232;28;20463;-79
2022/06/06 08:18:24;;;;;;;2.53;2.33;;;25.80;67.40;;;;;;5116920;28;20569;-80
2022/06/06 08:21:02;;;;;;;2.70;2.53;;;25.80;67.30;;;;;;5116598;28;20434;-79
2022/06/06 08:23:34;;;;;;;1.90;1.80;;;25.80;67.40;;;;;;5116576;28;20447;-80
2022/06/06 08:26:02;;;;;;;2.07;1.97;;;25.80;67.40;;;;;;5116855;28;20438;-79
2022/06/06 08:28:32;;;;;;;2.10;2.00;;;25.80;67.40;;;;;;5116624;28;20431;-79
2022/06/06 08:30:59;;;;;;;2.10;1.97;;;25.80;67.30;;;;;;5116589;28;20437;-83
2022/06/06 08:33:26;;;;;;;4.13;3.73;;;25.80;67.30;;;;;;5116621;28;21004;-79
2022/06/06 08:36:07;;;;;;;2.40;2.20;;;25.80;67.30;;;;;;5116721;28;20462;-79
2022/06/06 08:38:48;;;;;;;2.27;2.17;;;25.90;67.40;;;;;;5116653;28;20531;-83
2022/06/06 08:41:43;;;;;;;1.83;1.73;;;25.90;67.40;;;;;;5116061;28;20467;-79
2022/06/06 08:44:27;;;;;;;2.37;2.17;;;25.90;67.30;;;;;;5116196;28;20483;-79
2022/06/06 08:47:05;;;;;;;2.27;2.07;;;25.90;67.40;;;;;;5116345;28;20457;-80
2022/06/06 08:53:10;;;;;;;1.83;1.73;;;25.90;67.40;;;;;;5116620;28;20422;-79
2022/06/06 08:56:09;;;;;;;2.00;1.90;;;25.90;67.50;;;;;;5116232;28;21013;-80
2022/06/06 08:59:13;;;;;;;2.27;2.17;;;25.90;67.60;;;;;;5116037;28;20518;-81
2022/06/06 09:02:12;;;;;;;2.33;2.13;;;26.00;67.60;;;;;;5106357;28;20460;-80
2022/06/06 09:05:21;;;;;;;3.73;2.27;;;25.90;67.50;;;;;;5115981;28;20443;-80
2022/06/06 09:08:21;;;;;;;2.20;2.00;;;26.00;67.60;;;;;;5108711;28;20474;-80
2022/06/06 09:11:38;;;;;;;2.30;2.20;;;25.90;67.60;;;;;;5115828;28;20439;-81
2022/06/06 09:14:30;;;;;;;2.20;2.10;;;26.00;67.60;;;;;;5115835;28;20550;-80
2022/06/06 09:17:28;;;;;;;2.27;2.17;;;26.00;67.60;;;;;;5115885;28;21020;-79
2022/06/06 09:20:23;;;;;;;2.40;2.20;;;25.90;67.60;;;;;;5115591;28;20489;-80
2022/06/06 09:23:22;;;;;;;1.80;1.70;;;26.00;67.60;;;;;;5115987;28;20440;-80
2022/06/06 09:26:00;;;;;;;2.37;2.07;;;26.00;67.50;;;;;;5115666;28;20439;-80
2022/06/06 09:29:08;;;;;;;1.90;1.80;;;26.00;67.60;;;;;;5115572;28;20457;-80
2022/06/06 09:32:10;;;;;;;1.77;1.67;;;26.10;67.60;;;;;;5115558;28;20439;-83
2022/06/06 09:35:08;;;;;;;1.70;1.60;;;26.00;67.50;;;;;;5115440;28;20430;-80
2022/06/06 09:37:40;;;;;;;1.80;1.60;;;26.00;67.60;;;;;;5099533;28;20440;-83
2022/06/06 09:40:21;;;;;;;1.97;1.87;;;26.00;67.60;;;;;;5115445;28;20526;-80
2022/06/06 09:43:08;;;;;;;1.83;1.73;;;26.10;67.50;;;;;;5115399;28;20538;-80
2022/06/06 09:45:37;;;;;;;1.80;1.70;;;26.10;67.40;;;;;;5115195;28;20443;-80
2022/06/06 09:48:38;;;;;;;2.00;1.70;;;26.10;67.50;;;;;;5115395;28;20510;-79
2022/06/06 09:51:50;;;;;;;1.80;1.70;;;26.20;67.40;;;;;;5115305;28;20530;-80
2022/06/06 10:01:17;;;;;;;1.80;1.70;;;26.20;67.30;;;;;;5115024;28;20811;-81
2022/06/06 10:04:44;;;;;;;1.90;1.80;;;26.20;67.30;;;;;;5114921;28;20518;-80
2022/06/06 10:08:05;;;;;;;1.97;1.77;;;26.20;67.20;;;;;;5099721;28;20466;-80
2022/06/06 10:11:04;;;;;;;1.63;1.53;;;26.20;67.20;;;;;;5114820;28;20531;-79
2022/06/06 10:13:42;;;;;;;1.40;1.30;;;26.20;67.30;;;;;;5114493;28;20566;-80
2022/06/06 10:16:28;;;;;;;1.40;1.30;;;26.20;67.40;;;;;;5114701;28;20443;-80
2022/06/06 10:19:15;;;;;;;1.63;1.53;;;26.20;67.20;;;;;;5114629;28;20482;-80
2022/06/06 10:22:06;;;;;;;1.73;1.63;;;26.20;67.10;;;;;;5114624;28;20530;-80
2022/06/06 10:24:58;;;;;;;1.70;1.60;;;26.20;67.10;;;;;;5114517;28;20449;-80
2022/06/06 10:27:35;;;;;;;1.30;1.20;;;26.20;67.10;;;;;;5098397;28;20435;-80
2022/06/06 10:30:12;;;;;;;1.50;1.40;;;26.30;67.10;;;;;;5114393;28;20941;-79
2022/06/06 10:33:06;;;;;;;1.57;1.47;;;26.30;67.10;;;;;;5114167;28;20941;-80
2022/06/06 10:35:45;;;;;;;1.30;1.20;;;26.40;67.10;;;;;;5114299;28;20508;-80
2022/06/06 10:38:30;;;;;;;1.60;1.50;;;26.40;67.10;;;;;;5113974;28;20576;-81
2022/06/06 10:41:10;;;;;;;1.43;1.23;;;26.40;67.00;;;;;;5114231;28;20854;-82
2022/06/06 10:43:52;;;;;;;1.60;1.50;;;26.40;67.00;;;;;;5114645;28;20846;-79
2022/06/06 10:46:26;;;;;;;1.50;1.40;;;26.40;66.90;;;;;;5114444;28;20445;-80
2022/06/06 10:49:13;;;;;;;1.37;1.27;;;26.40;66.90;;;;;;5114316;28;21013;-80
2022/06/06 10:52:16;;;;;;;1.33;1.23;;;26.50;67.00;;;;;;5114235;28;20530;-80
2022/06/06 10:55:29;;;;;;;1.50;1.40;;;26.50;67.00;;;;;;5114050;28;20525;-80
2022/06/06 10:58:24;;;;;;;1.20;1.10;;;26.40;67.00;;;;;;5113988;28;20431;-79
2022/06/06 11:01:21;;;;;;;1.30;1.20;;;26.40;67.10;;;;;;5082626;28;20522;-80
2022/06/06 11:04:20;;;;;;;1.50;1.40;;;26.40;67.00;;;;;;5113799;28;20447;-79
2022/06/06 11:07:15;;;;;;;1.73;1.40;;;26.40;66.90;;;;;;5113893;28;20776;-79
2022/06/06 11:10:04;;;;;;;1.60;1.50;;;26.40;67.00;;;;;;5113942;28;20453;-80
2022/06/06 11:13:05;;;;;;;1.60;1.50;;;26.50;67.00;;;;;;5113506;28;21040;-80
2022/06/06 11:15:38;;;;;;;1.27;1.17;;;26.50;66.80;;;;;;5113497;28;20474;-80
2022/06/06 11:18:46;;;;;;;1.20;1.10;;;26.40;66.90;;;;;;5113025;28;20478;-80
2022/06/06 11:21:47;;;;;;;1.43;1.33;;;26.40;66.80;;;;;;5113772;28;20446;-80
2022/06/06 11:24:27;;;;;;;1.40;1.30;;;26.30;66.90;;;;;;5087578;28;20474;-80
2022/06/06 11:27:17;;;;;;;1.20;1.10;;;26.30;66.90;;;;;;5113716;28;20431;-80
2022/06/06 11:30:16;;;;;;;1.53;1.43;;;26.30;66.90;;;;;;5113647;28;20467;-80
2022/06/06 11:33:23;;;;;;;1.53;1.43;;;26.30;66.80;;;;;;5113739;28;20442;-80
2022/06/06 11:36:07;;;;;;;1.30;1.20;;;26.30;66.90;;;;;;5113619;28;20434;-81
2022/06/06 11:39:10;;;;;;;1.30;1.20;;;26.20;66.80;;;;;;5113350;28;20470;-82
2022/06/06 11:42:01;;;;;;;1.23;1.13;;;26.30;66.80;;;;;;5087308;28;20522;-80
2022/06/06 11:45:10;;;;;;;1.10;1.00;;;26.30;66.70;;;;;;5113591;28;20443;-80
2022/06/06 11:48:02;;;;;;;1.17;1.07;;;26.40;66.70;;;;;;5106408;28;20525;-82
2022/06/06 11:51:08;;;;;;;1.13;1.03;;;26.30;66.80;;;;;;5113600;28;20439;-80
2022/06/06 11:54:10;;;;;;;2.10;1.20;;;26.20;66.70;;;;;;5113654;28;20856;-82
2022/06/06 11:56:59;;;;;;;1.47;1.37;;;26.20;66.70;;;;;;5113468;28;20509;-80
2022/06/06 12:00:00;;;;;;;1.23;1.13;;;26.20;66.80;;;;;;5113446;28;20531;-80
2022/06/06 12:02:57;;;;;;;1.20;1.10;;;26.20;66.80;;;;;;5113227;28;20466;-80
2022/06/06 12:06:00;;;;;;;1.20;1.10;;;26.20;66.80;;;;;;5113471;28;20960;-80
2022/06/06 12:08:49;;;;;;;1.43;1.33;;;26.10;66.90;;;;;;5088935;28;20495;-80
2022/06/06 12:11:55;;;;;;;1.37;1.10;;;26.20;67.00;;;;;;5113457;28;20423;-80
2022/06/06 12:14:40;;;;;;;1.50;1.40;;;26.20;66.80;;;;;;5092880;28;20435;-79
2022/06/06 12:17:13;;;;;;;0.97;0.87;;;26.20;66.90;;;;;;5096682;28;20526;-80
2022/06/06 12:20:03;;;;;;;1.20;1.10;;;26.20;66.90;;;;;;5096391;28;20915;-80
2022/06/06 12:22:57;;;;;;;1.23;1.13;;;26.20;66.80;;;;;;5096831;28;20467;-80
2022/06/06 12:25:41;;;;;;;1.20;1.10;;;26.20;66.80;;;;;;5096570;28;20467;-80
2022/06/06 12:28:38;;;;;;;1.10;1.00;;;26.20;66.90;;;;;;5096495;28;20994;-80
2022/06/06 12:31:25;;;;;;;1.30;1.20;;;26.20;66.90;;;;;;5096533;28;20523;-80
2022/06/06 12:33:59;;;;;;;1.20;1.10;;;26.20;66.90;;;;;;5096219;28;20493;-80
2022/06/06 12:36:36;;;;;;;1.20;1.10;;;26.20;66.90;;;;;;5096373;28;20526;-80
2022/06/06 12:39:13;;;;;;;1.53;1.00;;;26.20;66.80;;;;;;5096167;28;20560;-80
2022/06/06 12:41:58;;;;;;;1.17;1.07;;;26.30;66.80;;;;;;5096038;28;20539;-80
2022/06/06 12:44:54;;;;;;;1.30;1.20;;;26.40;66.80;;;;;;5096010;28;20462;-80
2022/06/06 12:47:50;;;;;;;1.10;0.97;;;26.40;66.80;;;;;;5093928;28;20460;-83
2022/06/06 12:50:41;;;;;;;1.20;1.10;;;26.40;66.80;;;;;;5096024;28;20851;-82
2022/06/06 12:53:29;;;;;;;1.10;1.00;;;26.40;66.70;;;;;;5096216;28;20498;-80
2022/06/06 12:56:20;;;;;;;1.10;0.90;;;26.40;66.70;;;;;;5096247;28;20512;-80
2022/06/06 12:59:01;;;;;;;1.10;1.00;;;26.40;66.70;;;;;;5095903;28;20567;-83
2022/06/06 13:01:39;;;;;;;1.43;1.10;;;26.40;66.70;;;;;;5095898;28;20483;-80
2022/06/06 13:04:35;;;;;;;1.10;1.00;;;26.40;67.60;;;;;;5095553;28;21018;-80
2022/06/06 13:07:18;;;;;;;1.20;0.90;;;26.40;66.60;;;;;;5073237;28;21002;-80
2022/06/06 13:10:03;;;;;;;1.53;0.83;;;26.40;66.70;;;;;;5095602;28;20432;-80
2022/06/06 13:12:47;;;;;;;1.00;0.90;;;26.40;66.60;;;;;;5100821;28;20475;-81
2022/06/06 13:15:23;;;;;;;1.10;1.00;;;26.40;66.60;;;;;;5115951;28;20953;-80
2022/06/06 13:18:07;;;;;;;1.10;1.00;;;26.40;66.60;;;;;;5115645;28;20458;-81
2022/06/06 13:20:41;;;;;;;1.20;1.10;;;26.40;67.10;;;;;;5115627;28;20569;-82
2022/06/06 13:23:46;;;;;;;1.30;1.20;;;26.40;66.60;;;;;;5115918;28;20484;-80
2022/06/06 13:26:47;;;;;;;1.10;1.00;;;26.40;66.40;;;;;;5115647;28;21006;-83
2022/06/06 13:29:27;;;;;;;1.00;0.90;;;26.50;66.50;;;;;;5116048;28;20447;-80
2022/06/06 13:32:07;;;;;;;0.93;0.80;;;26.50;66.60;;;;;;5115744;28;20526;-80
2022/06/06 13:34:50;;;;;;;1.20;0.80;;;26.40;66.50;;;;;;5115503;28;20530;-82
2022/06/06 13:37:25;;;;;;;1.00;0.90;;;26.50;66.50;;;;;;5115630;28;20534;-81
2022/06/06 13:40:06;;;;;;;1.10;1.00;;;26.40;66.50;;;;;;5115155;28;21406;-80
2022/06/06 13:42:50;;;;;;;1.00;0.90;;;26.50;66.50;;;;;;5115264;28;20475;-82
2022/06/06 13:45:25;;;;;;;1.20;0.80;;;26.50;66.50;;;;;;5115339;28;20866;-83
2022/06/06 13:48:28;;;;;;;1.03;0.90;;;26.50;66.50;;;;;;5115491;28;20463;-80
2022/06/06 13:51:06;;;;;;;1.13;0.93;;;26.50;66.40;;;;;;5115188;28;20533;-80
2022/06/06 13:53:47;;;;;;;1.10;1.00;;;26.40;66.40;;;;;;5115284;28;20434;-80
2022/06/06 13:56:28;;;;;;;1.20;1.00;;;26.50;66.50;;;;;;5115227;28;20478;-80
2022/06/06 13:59:06;;;;;;;1.17;1.00;;;26.50;66.50;;;;;;5115143;28;20988;-80
2022/06/06 14:01:43;;;;;;;1.10;1.00;;;26.40;66.40;;;;;;5115310;28;20530;-80
2022/06/06 14:04:26;;;;;;;1.10;1.00;;;26.50;66.40;;;;;;5114855;28;20478;-80
2022/06/06 14:07:13;;;;;;;0.93;0.80;;;26.50;66.50;;;;;;5115079;28;20481;-80
2022/06/06 14:09:42;;;;;;;1.10;0.90;;;26.50;66.40;;;;;;5114798;28;20431;-83
2022/06/06 14:12:20;;;;;;;1.00;0.90;;;26.40;66.40;;;;;;5114670;28;20471;-80
2022/06/06 14:14:49;;;;;;;1.10;1.00;;;26.40;66.40;;;;;;5114927;28;20537;-83
2022/06/06 14:17:24;;;;;;;1.10;0.80;;;26.50;66.50;;;;;;5114740;28;20529;-80
2022/06/06 14:20:12;;;;;;;1.00;0.90;;;26.50;66.40;;;;;;5114332;28;20484;-80